sensor_id;sensor_type;location;lat;lon;timestamp;P1;durP1;ratioP1;P2;durP2;ratioP2
42260;SDS011;27926;48.062;7.474;2023-02-28T00:01:20;5.50;;;2.13;;
42260;SDS011;27926;48.062;7.474;2023-02-28T00:03:45;5.73;;;2.70;;
42260;SDS011;27926;48.062;7.474;2023-02-28T00:06:09;4.90;;;2.80;;
42260;SDS011;27926;48.062;7.474;2023-02-28T00:08:34;5.87;;;2.30;;
42260;SDS011;27926;48.062;7.474;2023-02-28T00:11:03;9.23;;;3.08;;
42260;SDS011;27926;48.062;7.474;2023-02-28T00:13:28;7.20;;;3.15;;
42260;SDS011;27926;48.062;7.474;2023-02-28T00:16:00;9.63;;;2.90;;
42260;SDS011;27926;48.062;7.474;2023-02-28T00:18:32;5.88;;;2.67;;
42260;SDS011;27926;48.062;7.474;2023-02-28T00:20:57;7.37;;;3.20;;
42260;SDS011;27926;48.062;7.474;2023-02-28T00:23:23;13.68;;;3.50;;
42260;SDS011;27926;48.062;7.474;2023-02-28T00:25:48;13.38;;;4.25;;
42260;SDS011;27926;48.062;7.474;2023-02-28T00:28:12;9.70;;;3.73;;
42260;SDS011;27926;48.062;7.474;2023-02-28T00:30:37;9.50;;;3.97;;
42260;SDS011;27926;48.062;7.474;2023-02-28T00:33:01;9.00;;;3.67;;
42260;SDS011;27926;48.062;7.474;2023-02-28T00:35:26;9.50;;;4.00;;
42260;SDS011;27926;48.062;7.474;2023-02-28T00:37:51;7.83;;;3.80;;
42260;SDS011;27926;48.062;7.474;2023-02-28T00:40:15;7.20;;;3.63;;
42260;SDS011;27926;48.062;7.474;2023-02-28T00:42:40;9.53;;;3.63;;
42260;SDS011;27926;48.062;7.474;2023-02-28T00:45:05;8.03;;;3.20;;
42260;SDS011;27926;48.062;7.474;2023-02-28T00:47:30;17.73;;;3.70;;
42260;SDS011;27926;48.062;7.474;2023-02-28T00:49:55;8.73;;;2.97;;
42260;SDS011;27926;48.062;7.474;2023-02-28T00:52:19;9.73;;;3.27;;
42260;SDS011;27926;48.062;7.474;2023-02-28T00:54:45;7.57;;;3.35;;
42260;SDS011;27926;48.062;7.474;2023-02-28T00:57:09;6.17;;;3.30;;
42260;SDS011;27926;48.062;7.474;2023-02-28T00:59:34;7.83;;;2.93;;
42260;SDS011;27926;48.062;7.474;2023-02-28T01:01:59;6.83;;;3.20;;
42260;SDS011;27926;48.062;7.474;2023-02-28T01:04:24;14.30;;;3.73;;
42260;SDS011;27926;48.062;7.474;2023-02-28T01:06:48;8.93;;;3.00;;
42260;SDS011;27926;48.062;7.474;2023-02-28T01:09:13;11.43;;;3.93;;
42260;SDS011;27926;48.062;7.474;2023-02-28T01:11:38;6.37;;;2.60;;
42260;SDS011;27926;48.062;7.474;2023-02-28T01:14:04;9.00;;;3.35;;
42260;SDS011;27926;48.062;7.474;2023-02-28T01:16:29;8.93;;;3.60;;
42260;SDS011;27926;48.062;7.474;2023-02-28T01:18:54;8.05;;;3.63;;
42260;SDS011;27926;48.062;7.474;2023-02-28T01:21:19;11.07;;;3.80;;
42260;SDS011;27926;48.062;7.474;2023-02-28T01:23:44;7.50;;;3.20;;
42260;SDS011;27926;48.062;7.474;2023-02-28T01:26:10;10.75;;;3.70;;
42260;SDS011;27926;48.062;7.474;2023-02-28T01:28:41;5.35;;;3.15;;
42260;SDS011;27926;48.062;7.474;2023-02-28T01:31:06;7.20;;;2.72;;
42260;SDS011;27926;48.062;7.474;2023-02-28T01:35:57;10.95;;;3.33;;
42260;SDS011;27926;48.062;7.474;2023-02-28T01:38:26;8.88;;;3.28;;
42260;SDS011;27926;48.062;7.474;2023-02-28T01:40:51;19.87;;;2.83;;
42260;SDS011;27926;48.062;7.474;2023-02-28T01:43:23;8.57;;;3.53;;
42260;SDS011;27926;48.062;7.474;2023-02-28T01:45:48;7.13;;;2.40;;
42260;SDS011;27926;48.062;7.474;2023-02-28T01:48:12;5.73;;;2.63;;
42260;SDS011;27926;48.062;7.474;2023-02-28T01:50:38;5.83;;;2.87;;
42260;SDS011;27926;48.062;7.474;2023-02-28T01:53:07;5.68;;;2.80;;
42260;SDS011;27926;48.062;7.474;2023-02-28T01:55:42;7.37;;;2.60;;
42260;SDS011;27926;48.062;7.474;2023-02-28T01:58:11;6.43;;;2.47;;
42260;SDS011;27926;48.062;7.474;2023-02-28T02:00:36;7.43;;;3.20;;
42260;SDS011;27926;48.062;7.474;2023-02-28T02:03:10;8.57;;;3.05;;
42260;SDS011;27926;48.062;7.474;2023-02-28T02:05:38;6.50;;;2.72;;
42260;SDS011;27926;48.062;7.474;2023-02-28T02:08:05;6.10;;;2.90;;
42260;SDS011;27926;48.062;7.474;2023-02-28T02:10:34;11.20;;;2.63;;
42260;SDS011;27926;48.062;7.474;2023-02-28T02:13:24;10.27;;;3.13;;
42260;SDS011;27926;48.062;7.474;2023-02-28T02:16:24;8.52;;;2.67;;
42260;SDS011;27926;48.062;7.474;2023-02-28T02:24:48;6.85;;;3.33;;
42260;SDS011;27926;48.062;7.474;2023-02-28T02:33:32;5.95;;;2.97;;
42260;SDS011;27926;48.062;7.474;2023-02-28T02:36:37;6.32;;;2.95;;
42260;SDS011;27926;48.062;7.474;2023-02-28T02:39:17;10.68;;;2.58;;
42260;SDS011;27926;48.062;7.474;2023-02-28T02:41:51;7.50;;;3.50;;
42260;SDS011;27926;48.062;7.474;2023-02-28T02:44:19;9.88;;;2.70;;
42260;SDS011;27926;48.062;7.474;2023-02-28T02:46:48;13.68;;;3.08;;
42260;SDS011;27926;48.062;7.474;2023-02-28T02:49:20;6.90;;;2.65;;
42260;SDS011;27926;48.062;7.474;2023-02-28T02:51:49;7.32;;;2.97;;
42260;SDS011;27926;48.062;7.474;2023-02-28T02:54:17;6.68;;;2.65;;
42260;SDS011;27926;48.062;7.474;2023-02-28T02:56:46;12.57;;;2.90;;
42260;SDS011;27926;48.062;7.474;2023-02-28T02:59:14;4.63;;;2.67;;
42260;SDS011;27926;48.062;7.474;2023-02-28T03:01:45;4.35;;;2.40;;
42260;SDS011;27926;48.062;7.474;2023-02-28T03:04:15;16.30;;;3.83;;
42260;SDS011;27926;48.062;7.474;2023-02-28T03:06:42;7.88;;;2.92;;
42260;SDS011;27926;48.062;7.474;2023-02-28T03:09:07;10.90;;;3.33;;
42260;SDS011;27926;48.062;7.474;2023-02-28T03:11:32;9.07;;;3.00;;
42260;SDS011;27926;48.062;7.474;2023-02-28T03:21:36;9.52;;;3.03;;
42260;SDS011;27926;48.062;7.474;2023-02-28T03:29:22;6.80;;;2.90;;
42260;SDS011;27926;48.062;7.474;2023-02-28T03:31:52;6.93;;;2.63;;
42260;SDS011;27926;48.062;7.474;2023-02-28T03:34:33;8.45;;;2.67;;
42260;SDS011;27926;48.062;7.474;2023-02-28T03:37:03;8.07;;;2.95;;
42260;SDS011;27926;48.062;7.474;2023-02-28T03:39:49;3.78;;;2.30;;
42260;SDS011;27926;48.062;7.474;2023-02-28T03:42:23;13.10;;;2.97;;
42260;SDS011;27926;48.062;7.474;2023-02-28T03:44:55;8.18;;;2.88;;
42260;SDS011;27926;48.062;7.474;2023-02-28T03:47:24;6.10;;;2.65;;
42260;SDS011;27926;48.062;7.474;2023-02-28T03:49:57;3.97;;;2.78;;
42260;SDS011;27926;48.062;7.474;2023-02-28T03:52:48;6.22;;;2.83;;
42260;SDS011;27926;48.062;7.474;2023-02-28T03:55:16;9.18;;;2.78;;
42260;SDS011;27926;48.062;7.474;2023-02-28T04:00:33;6.35;;;2.75;;
42260;SDS011;27926;48.062;7.474;2023-02-28T04:03:02;5.53;;;2.83;;
42260;SDS011;27926;48.062;7.474;2023-02-28T04:05:27;5.90;;;2.78;;
42260;SDS011;27926;48.062;7.474;2023-02-28T04:07:53;8.35;;;3.30;;
42260;SDS011;27926;48.062;7.474;2023-02-28T04:10:18;5.40;;;2.70;;
42260;SDS011;27926;48.062;7.474;2023-02-28T04:12:42;6.00;;;3.30;;
42260;SDS011;27926;48.062;7.474;2023-02-28T04:15:07;9.77;;;3.10;;
42260;SDS011;27926;48.062;7.474;2023-02-28T04:17:32;7.90;;;3.38;;
42260;SDS011;27926;48.062;7.474;2023-02-28T04:19:57;8.23;;;3.50;;
42260;SDS011;27926;48.062;7.474;2023-02-28T04:22:21;7.77;;;3.30;;
42260;SDS011;27926;48.062;7.474;2023-02-28T04:24:46;9.13;;;3.20;;
42260;SDS011;27926;48.062;7.474;2023-02-28T04:27:10;7.27;;;2.77;;
42260;SDS011;27926;48.062;7.474;2023-02-28T04:29:35;14.87;;;3.50;;
42260;SDS011;27926;48.062;7.474;2023-02-28T04:32:00;8.43;;;3.03;;
42260;SDS011;27926;48.062;7.474;2023-02-28T04:34:26;10.30;;;3.38;;
42260;SDS011;27926;48.062;7.474;2023-02-28T04:36:52;7.78;;;3.13;;
42260;SDS011;27926;48.062;7.474;2023-02-28T04:39:18;10.50;;;3.20;;
42260;SDS011;27926;48.062;7.474;2023-02-28T04:41:44;18.42;;;3.45;;
42260;SDS011;27926;48.062;7.474;2023-02-28T04:44:11;10.77;;;3.50;;
42260;SDS011;27926;48.062;7.474;2023-02-28T04:46:36;6.28;;;3.30;;
42260;SDS011;27926;48.062;7.474;2023-02-28T04:49:00;7.73;;;3.50;;
42260;SDS011;27926;48.062;7.474;2023-02-28T04:51:25;9.00;;;3.60;;
42260;SDS011;27926;48.062;7.474;2023-02-28T04:53:49;4.63;;;2.87;;
42260;SDS011;27926;48.062;7.474;2023-02-28T04:56:16;5.90;;;3.27;;
42260;SDS011;27926;48.062;7.474;2023-02-28T04:58:42;7.18;;;3.50;;
42260;SDS011;27926;48.062;7.474;2023-02-28T05:01:15;13.48;;;3.75;;
42260;SDS011;27926;48.062;7.474;2023-02-28T05:03:42;16.55;;;3.30;;
42260;SDS011;27926;48.062;7.474;2023-02-28T05:06:08;9.20;;;3.17;;
42260;SDS011;27926;48.062;7.474;2023-02-28T05:08:33;9.25;;;3.30;;
42260;SDS011;27926;48.062;7.474;2023-02-28T05:10:58;5.43;;;2.90;;
42260;SDS011;27926;48.062;7.474;2023-02-28T05:13:24;7.38;;;3.92;;
42260;SDS011;27926;48.062;7.474;2023-02-28T05:15:49;14.53;;;3.13;;
42260;SDS011;27926;48.062;7.474;2023-02-28T05:18:13;7.70;;;3.40;;
42260;SDS011;27926;48.062;7.474;2023-02-28T05:20:38;6.70;;;3.83;;
42260;SDS011;27926;48.062;7.474;2023-02-28T05:23:02;8.13;;;4.13;;
42260;SDS011;27926;48.062;7.474;2023-02-28T05:25:27;10.10;;;3.63;;
42260;SDS011;27926;48.062;7.474;2023-02-28T05:27:52;6.70;;;3.60;;
42260;SDS011;27926;48.062;7.474;2023-02-28T05:30:16;10.40;;;3.37;;
42260;SDS011;27926;48.062;7.474;2023-02-28T05:32:41;9.03;;;3.70;;
42260;SDS011;27926;48.062;7.474;2023-02-28T05:35:09;10.32;;;3.95;;
42260;SDS011;27926;48.062;7.474;2023-02-28T05:37:35;8.38;;;4.07;;
42260;SDS011;27926;48.062;7.474;2023-02-28T05:40:01;7.70;;;3.60;;
42260;SDS011;27926;48.062;7.474;2023-02-28T05:42:25;7.10;;;3.47;;
42260;SDS011;27926;48.062;7.474;2023-02-28T05:44:50;8.93;;;3.73;;
42260;SDS011;27926;48.062;7.474;2023-02-28T05:47:15;6.13;;;3.83;;
42260;SDS011;27926;48.062;7.474;2023-02-28T05:49:41;9.87;;;3.80;;
42260;SDS011;27926;48.062;7.474;2023-02-28T05:52:06;8.30;;;4.18;;
42260;SDS011;27926;48.062;7.474;2023-02-28T05:54:30;9.47;;;4.23;;
42260;SDS011;27926;48.062;7.474;2023-02-28T05:56:55;8.70;;;4.40;;
42260;SDS011;27926;48.062;7.474;2023-02-28T05:59:20;6.13;;;3.57;;
42260;SDS011;27926;48.062;7.474;2023-02-28T06:01:45;8.53;;;4.17;;
42260;SDS011;27926;48.062;7.474;2023-02-28T06:04:12;16.88;;;4.50;;
42260;SDS011;27926;48.062;7.474;2023-02-28T06:09:04;8.23;;;4.28;;
42260;SDS011;27926;48.062;7.474;2023-02-28T06:11:29;10.50;;;4.05;;
42260;SDS011;27926;48.062;7.474;2023-02-28T06:13:54;11.63;;;5.20;;
42260;SDS011;27926;48.062;7.474;2023-02-28T06:16:20;11.48;;;5.43;;
42260;SDS011;27926;48.062;7.474;2023-02-28T06:18:45;11.43;;;4.60;;
42260;SDS011;27926;48.062;7.474;2023-02-28T06:21:09;10.00;;;4.90;;
42260;SDS011;27926;48.062;7.474;2023-02-28T06:23:34;10.03;;;4.77;;
42260;SDS011;27926;48.062;7.474;2023-02-28T06:25:58;10.23;;;5.07;;
42260;SDS011;27926;48.062;7.474;2023-02-28T06:28:24;15.70;;;5.40;;
42260;SDS011;27926;48.062;7.474;2023-02-28T06:30:49;11.25;;;4.25;;
42260;SDS011;27926;48.062;7.474;2023-02-28T06:33:14;10.37;;;4.47;;
42260;SDS011;27926;48.062;7.474;2023-02-28T06:35:38;9.33;;;5.13;;
42260;SDS011;27926;48.062;7.474;2023-02-28T06:38:03;11.27;;;5.40;;
42260;SDS011;27926;48.062;7.474;2023-02-28T06:40:27;11.93;;;6.07;;
42260;SDS011;27926;48.062;7.474;2023-02-28T06:42:55;7.40;;;4.45;;
42260;SDS011;27926;48.062;7.474;2023-02-28T06:45:21;12.82;;;5.07;;
42260;SDS011;27926;48.062;7.474;2023-02-28T06:47:45;9.97;;;4.60;;
42260;SDS011;27926;48.062;7.474;2023-02-28T06:50:16;11.85;;;5.05;;
42260;SDS011;27926;48.062;7.474;2023-02-28T06:52:44;9.68;;;4.85;;
42260;SDS011;27926;48.062;7.474;2023-02-28T06:55:09;9.00;;;4.43;;
42260;SDS011;27926;48.062;7.474;2023-02-28T06:57:34;24.63;;;5.40;;
42260;SDS011;27926;48.062;7.474;2023-02-28T06:59:59;15.60;;;5.93;;
42260;SDS011;27926;48.062;7.474;2023-02-28T07:02:25;9.57;;;4.47;;
42260;SDS011;27926;48.062;7.474;2023-02-28T07:04:50;9.10;;;5.15;;
42260;SDS011;27926;48.062;7.474;2023-02-28T07:07:15;9.93;;;4.73;;
42260;SDS011;27926;48.062;7.474;2023-02-28T07:09:39;10.53;;;5.10;;
42260;SDS011;27926;48.062;7.474;2023-02-28T07:12:04;11.53;;;5.77;;
42260;SDS011;27926;48.062;7.474;2023-02-28T07:14:29;19.97;;;5.80;;
42260;SDS011;27926;48.062;7.474;2023-02-28T07:16:53;9.43;;;4.60;;
42260;SDS011;27926;48.062;7.474;2023-02-28T07:19:18;12.70;;;4.60;;
42260;SDS011;27926;48.062;7.474;2023-02-28T07:21:42;9.40;;;4.60;;
42260;SDS011;27926;48.062;7.474;2023-02-28T07:24:07;11.70;;;5.50;;
42260;SDS011;27926;48.062;7.474;2023-02-28T07:26:32;12.77;;;5.57;;
42260;SDS011;27926;48.062;7.474;2023-02-28T07:28:59;10.50;;;5.57;;
42260;SDS011;27926;48.062;7.474;2023-02-28T07:31:24;12.50;;;6.03;;
42260;SDS011;27926;48.062;7.474;2023-02-28T07:33:49;12.03;;;5.20;;
42260;SDS011;27926;48.062;7.474;2023-02-28T07:36:14;9.10;;;4.87;;
42260;SDS011;27926;48.062;7.474;2023-02-28T07:38:41;11.82;;;5.35;;
42260;SDS011;27926;48.062;7.474;2023-02-28T07:41:07;11.48;;;5.32;;
42260;SDS011;27926;48.062;7.474;2023-02-28T07:43:32;11.40;;;5.77;;
42260;SDS011;27926;48.062;7.474;2023-02-28T07:46:07;15.50;;;4.87;;
42260;SDS011;27926;48.062;7.474;2023-02-28T07:48:33;11.32;;;5.13;;
42260;SDS011;27926;48.062;7.474;2023-02-28T07:50:58;11.93;;;5.27;;
42260;SDS011;27926;48.062;7.474;2023-02-28T07:53:24;15.15;;;6.15;;
42260;SDS011;27926;48.062;7.474;2023-02-28T07:55:49;13.23;;;6.00;;
42260;SDS011;27926;48.062;7.474;2023-02-28T07:58:13;12.37;;;5.30;;
42260;SDS011;27926;48.062;7.474;2023-02-28T08:00:38;11.10;;;5.20;;
42260;SDS011;27926;48.062;7.474;2023-02-28T08:03:03;13.00;;;5.83;;
42260;SDS011;27926;48.062;7.474;2023-02-28T08:05:27;11.53;;;5.80;;
42260;SDS011;27926;48.062;7.474;2023-02-28T08:07:52;8.60;;;5.13;;
42260;SDS011;27926;48.062;7.474;2023-02-28T08:10:17;14.40;;;5.18;;
42260;SDS011;27926;48.062;7.474;2023-02-28T08:12:42;13.47;;;5.23;;
42260;SDS011;27926;48.062;7.474;2023-02-28T08:15:06;14.33;;;6.37;;
42260;SDS011;27926;48.062;7.474;2023-02-28T08:17:31;13.73;;;6.15;;
42260;SDS011;27926;48.062;7.474;2023-02-28T08:19:56;10.40;;;5.83;;
42260;SDS011;27926;48.062;7.474;2023-02-28T08:22:23;15.25;;;5.97;;
42260;SDS011;27926;48.062;7.474;2023-02-28T08:24:48;13.00;;;5.80;;
42260;SDS011;27926;48.062;7.474;2023-02-28T08:27:13;9.00;;;5.23;;
42260;SDS011;27926;48.062;7.474;2023-02-28T08:29:38;10.97;;;5.50;;
42260;SDS011;27926;48.062;7.474;2023-02-28T08:32:02;13.13;;;5.43;;
42260;SDS011;27926;48.062;7.474;2023-02-28T08:34:28;10.50;;;5.90;;
42260;SDS011;27926;48.062;7.474;2023-02-28T08:36:52;12.20;;;6.03;;
42260;SDS011;27926;48.062;7.474;2023-02-28T08:39:20;14.38;;;5.70;;
42260;SDS011;27926;48.062;7.474;2023-02-28T08:41:44;11.43;;;5.40;;
42260;SDS011;27926;48.062;7.474;2023-02-28T08:44:09;14.13;;;6.37;;
42260;SDS011;27926;48.062;7.474;2023-02-28T08:46:33;12.00;;;5.43;;
42260;SDS011;27926;48.062;7.474;2023-02-28T08:48:58;14.67;;;6.27;;
42260;SDS011;27926;48.062;7.474;2023-02-28T08:51:25;12.38;;;5.80;;
42260;SDS011;27926;48.062;7.474;2023-02-28T08:53:50;13.10;;;6.63;;
42260;SDS011;27926;48.062;7.474;2023-02-28T08:56:15;20.77;;;6.68;;
42260;SDS011;27926;48.062;7.474;2023-02-28T08:58:43;12.82;;;6.05;;
42260;SDS011;27926;48.062;7.474;2023-02-28T09:01:10;11.75;;;6.30;;
42260;SDS011;27926;48.062;7.474;2023-02-28T09:03:36;14.98;;;6.25;;
42260;SDS011;27926;48.062;7.474;2023-02-28T09:06:03;9.37;;;5.67;;
42260;SDS011;27926;48.062;7.474;2023-02-28T09:08:29;14.70;;;6.45;;
42260;SDS011;27926;48.062;7.474;2023-02-28T09:10:54;11.07;;;6.07;;
42260;SDS011;27926;48.062;7.474;2023-02-28T09:13:21;8.75;;;5.95;;
42260;SDS011;27926;48.062;7.474;2023-02-28T09:15:46;17.90;;;7.32;;
42260;SDS011;27926;48.062;7.474;2023-02-28T09:18:11;17.83;;;6.70;;
42260;SDS011;27926;48.062;7.474;2023-02-28T09:20:39;17.15;;;7.03;;
42260;SDS011;27926;48.062;7.474;2023-02-28T09:25:30;14.75;;;6.28;;
42260;SDS011;27926;48.062;7.474;2023-02-28T09:27:54;15.17;;;6.97;;
42260;SDS011;27926;48.062;7.474;2023-02-28T09:30:20;16.33;;;6.68;;
42260;SDS011;27926;48.062;7.474;2023-02-28T09:32:45;12.97;;;7.53;;
42260;SDS011;27926;48.062;7.474;2023-02-28T09:35:15;12.20;;;6.75;;
42260;SDS011;27926;48.062;7.474;2023-02-28T09:37:40;12.63;;;6.93;;
42260;SDS011;27926;48.062;7.474;2023-02-28T09:40:05;11.00;;;5.97;;
42260;SDS011;27926;48.062;7.474;2023-02-28T09:42:31;13.75;;;6.40;;
42260;SDS011;27926;48.062;7.474;2023-02-28T09:44:58;10.15;;;5.60;;
42260;SDS011;27926;48.062;7.474;2023-02-28T09:47:31;10.35;;;6.18;;
42260;SDS011;27926;48.062;7.474;2023-02-28T09:50:00;10.93;;;6.47;;
42260;SDS011;27926;48.062;7.474;2023-02-28T09:52:35;11.68;;;6.20;;
42260;SDS011;27926;48.062;7.474;2023-02-28T09:57:57;12.93;;;6.45;;
42260;SDS011;27926;48.062;7.474;2023-02-28T10:05:29;12.27;;;6.57;;
42260;SDS011;27926;48.062;7.474;2023-02-28T10:08:13;15.82;;;7.10;;
42260;SDS011;27926;48.062;7.474;2023-02-28T10:11:00;13.52;;;6.70;;
42260;SDS011;27926;48.062;7.474;2023-02-28T10:13:35;13.35;;;7.70;;
42260;SDS011;27926;48.062;7.474;2023-02-28T10:16:29;15.80;;;7.32;;
42260;SDS011;27926;48.062;7.474;2023-02-28T10:29:42;12.13;;;6.97;;
42260;SDS011;27926;48.062;7.474;2023-02-28T10:32:08;18.67;;;8.40;;
42260;SDS011;27926;48.062;7.474;2023-02-28T10:34:37;16.45;;;8.32;;
42260;SDS011;27926;48.062;7.474;2023-02-28T10:37:01;15.70;;;8.93;;
42260;SDS011;27926;48.062;7.474;2023-02-28T10:39:35;13.32;;;8.00;;
42260;SDS011;27926;48.062;7.474;2023-02-28T10:42:00;16.75;;;7.05;;
42260;SDS011;27926;48.062;7.474;2023-02-28T10:44:25;13.80;;;7.33;;
42260;SDS011;27926;48.062;7.474;2023-02-28T10:46:50;17.65;;;8.35;;
42260;SDS011;27926;48.062;7.474;2023-02-28T10:49:17;15.00;;;7.80;;
42260;SDS011;27926;48.062;7.474;2023-02-28T10:51:45;15.48;;;8.32;;
42260;SDS011;27926;48.062;7.474;2023-02-28T10:54:14;12.85;;;7.72;;
42260;SDS011;27926;48.062;7.474;2023-02-28T10:56:44;14.30;;;7.28;;
42260;SDS011;27926;48.062;7.474;2023-02-28T11:01:43;14.02;;;7.40;;
42260;SDS011;27926;48.062;7.474;2023-02-28T11:04:19;14.80;;;8.15;;
42260;SDS011;27926;48.062;7.474;2023-02-28T11:07:00;16.77;;;8.52;;
42260;SDS011;27926;48.062;7.474;2023-02-28T11:11:58;16.75;;;8.85;;
42260;SDS011;27926;48.062;7.474;2023-02-28T11:17:23;20.63;;;7.93;;
42260;SDS011;27926;48.062;7.474;2023-02-28T11:19:51;13.35;;;7.80;;
42260;SDS011;27926;48.062;7.474;2023-02-28T11:22:23;13.88;;;7.43;;
42260;SDS011;27926;48.062;7.474;2023-02-28T11:24:56;15.65;;;7.80;;
42260;SDS011;27926;48.062;7.474;2023-02-28T11:27:26;19.83;;;8.40;;
42260;SDS011;27926;48.062;7.474;2023-02-28T11:30:22;13.85;;;7.68;;
42260;SDS011;27926;48.062;7.474;2023-02-28T11:32:56;18.38;;;7.55;;
42260;SDS011;27926;48.062;7.474;2023-02-28T11:37:58;20.20;;;7.18;;
42260;SDS011;27926;48.062;7.474;2023-02-28T11:40:30;16.53;;;7.47;;
42260;SDS011;27926;48.062;7.474;2023-02-28T11:46:43;14.10;;;7.57;;
42260;SDS011;27926;48.062;7.474;2023-02-28T12:00:38;21.13;;;8.55;;
42260;SDS011;27926;48.062;7.474;2023-02-28T12:05:45;15.02;;;7.97;;
42260;SDS011;27926;48.062;7.474;2023-02-28T12:19:12;25.45;;;8.60;;
42260;SDS011;27926;48.062;7.474;2023-02-28T12:26:54;15.20;;;7.35;;
42260;SDS011;27926;48.062;7.474;2023-02-28T12:31:59;19.55;;;8.93;;
42260;SDS011;27926;48.062;7.474;2023-02-28T12:34:43;13.68;;;8.10;;
42260;SDS011;27926;48.062;7.474;2023-02-28T12:37:16;18.67;;;8.95;;
42260;SDS011;27926;48.062;7.474;2023-02-28T12:39:48;15.82;;;8.23;;
42260;SDS011;27926;48.062;7.474;2023-02-28T12:42:19;14.23;;;7.70;;
42260;SDS011;27926;48.062;7.474;2023-02-28T12:45:08;18.25;;;8.30;;
42260;SDS011;27926;48.062;7.474;2023-02-28T12:47:40;14.18;;;7.95;;
42260;SDS011;27926;48.062;7.474;2023-02-28T12:50:09;17.70;;;8.55;;
42260;SDS011;27926;48.062;7.474;2023-02-28T12:52:37;24.55;;;8.88;;
42260;SDS011;27926;48.062;7.474;2023-02-28T12:55:43;16.45;;;8.85;;
42260;SDS011;27926;48.062;7.474;2023-02-28T12:58:13;16.77;;;9.02;;
42260;SDS011;27926;48.062;7.474;2023-02-28T13:01:00;30.77;;;9.45;;
42260;SDS011;27926;48.062;7.474;2023-02-28T13:06:38;17.17;;;9.07;;
42260;SDS011;27926;48.062;7.474;2023-02-28T13:09:31;16.80;;;9.65;;
42260;SDS011;27926;48.062;7.474;2023-02-28T13:11:56;19.85;;;8.93;;
42260;SDS011;27926;48.062;7.474;2023-02-28T13:14:26;19.27;;;9.38;;
42260;SDS011;27926;48.062;7.474;2023-02-28T13:17:02;14.43;;;8.13;;
42260;SDS011;27926;48.062;7.474;2023-02-28T13:19:28;18.05;;;8.57;;
42260;SDS011;27926;48.062;7.474;2023-02-28T13:21:55;17.15;;;9.20;;
42260;SDS011;27926;48.062;7.474;2023-02-28T13:34:29;20.05;;;9.95;;
42260;SDS011;27926;48.062;7.474;2023-02-28T13:47:29;17.58;;;9.32;;
42260;SDS011;27926;48.062;7.474;2023-02-28T13:52:56;17.23;;;9.73;;
42260;SDS011;27926;48.062;7.474;2023-02-28T13:55:42;18.02;;;9.35;;
42260;SDS011;27926;48.062;7.474;2023-02-28T13:58:40;25.88;;;9.35;;
42260;SDS011;27926;48.062;7.474;2023-02-28T14:06:50;23.23;;;9.82;;
42260;SDS011;27926;48.062;7.474;2023-02-28T14:09:23;15.65;;;8.57;;
42260;SDS011;27926;48.062;7.474;2023-02-28T14:11:57;22.00;;;9.75;;
42260;SDS011;27926;48.062;7.474;2023-02-28T14:15:02;19.08;;;9.13;;
42260;SDS011;27926;48.062;7.474;2023-02-28T14:17:29;22.67;;;10.25;;
42260;SDS011;27926;48.062;7.474;2023-02-28T14:19:54;24.55;;;10.45;;
42260;SDS011;27926;48.062;7.474;2023-02-28T14:31:06;17.65;;;8.77;;
42260;SDS011;27926;48.062;7.474;2023-02-28T14:36:36;24.05;;;11.20;;
42260;SDS011;27926;48.062;7.474;2023-02-28T14:39:05;23.02;;;10.65;;
42260;SDS011;27926;48.062;7.474;2023-02-28T14:41:38;19.73;;;9.45;;
42260;SDS011;27926;48.062;7.474;2023-02-28T14:44:26;20.30;;;10.60;;
42260;SDS011;27926;48.062;7.474;2023-02-28T14:46:55;20.80;;;10.23;;
42260;SDS011;27926;48.062;7.474;2023-02-28T14:49:30;18.35;;;9.05;;
42260;SDS011;27926;48.062;7.474;2023-02-28T14:52:11;24.58;;;9.70;;
42260;SDS011;27926;48.062;7.474;2023-02-28T14:54:51;25.73;;;9.20;;
42260;SDS011;27926;48.062;7.474;2023-02-28T15:00:11;16.70;;;8.88;;
42260;SDS011;27926;48.062;7.474;2023-02-28T15:02:40;23.15;;;10.32;;
42260;SDS011;27926;48.062;7.474;2023-02-28T15:07:42;20.00;;;10.25;;
42260;SDS011;27926;48.062;7.474;2023-02-28T15:10:24;15.40;;;9.50;;
42260;SDS011;27926;48.062;7.474;2023-02-28T15:12:57;26.27;;;10.43;;
42260;SDS011;27926;48.062;7.474;2023-02-28T15:18:23;21.13;;;10.02;;
42260;SDS011;27926;48.062;7.474;2023-02-28T15:20:55;21.17;;;10.00;;
42260;SDS011;27926;48.062;7.474;2023-02-28T15:23:23;20.63;;;10.85;;
42260;SDS011;27926;48.062;7.474;2023-02-28T15:25:48;21.90;;;11.30;;
42260;SDS011;27926;48.062;7.474;2023-02-28T15:28:16;18.70;;;10.48;;
42260;SDS011;27926;48.062;7.474;2023-02-28T15:30:50;20.30;;;9.88;;
42260;SDS011;27926;48.062;7.474;2023-02-28T15:33:18;23.23;;;10.98;;
42260;SDS011;27926;48.062;7.474;2023-02-28T15:35:45;21.60;;;12.00;;
42260;SDS011;27926;48.062;7.474;2023-02-28T15:38:25;20.20;;;10.48;;
42260;SDS011;27926;48.062;7.474;2023-02-28T15:40:52;21.85;;;10.55;;
42260;SDS011;27926;48.062;7.474;2023-02-28T15:43:24;22.85;;;12.05;;
42260;SDS011;27926;48.062;7.474;2023-02-28T15:48:38;20.00;;;10.23;;
42260;SDS011;27926;48.062;7.474;2023-02-28T15:51:18;26.38;;;11.80;;
42260;SDS011;27926;48.062;7.474;2023-02-28T15:53:56;26.30;;;12.30;;
42260;SDS011;27926;48.062;7.474;2023-02-28T15:56:26;25.63;;;12.23;;
42260;SDS011;27926;48.062;7.474;2023-02-28T15:58:54;25.85;;;11.48;;
42260;SDS011;27926;48.062;7.474;2023-02-28T16:01:24;19.33;;;11.00;;
42260;SDS011;27926;48.062;7.474;2023-02-28T16:03:51;23.83;;;11.30;;
42260;SDS011;27926;48.062;7.474;2023-02-28T16:09:25;24.50;;;11.07;;
42260;SDS011;27926;48.062;7.474;2023-02-28T16:11:52;21.83;;;11.52;;
42260;SDS011;27926;48.062;7.474;2023-02-28T16:14:20;22.10;;;10.50;;
42260;SDS011;27926;48.062;7.474;2023-02-28T16:16:52;21.80;;;10.05;;
42260;SDS011;27926;48.062;7.474;2023-02-28T16:19:19;27.10;;;11.82;;
42260;SDS011;27926;48.062;7.474;2023-02-28T16:24:09;21.83;;;11.90;;
42260;SDS011;27926;48.062;7.474;2023-02-28T16:26:34;24.00;;;11.77;;
42260;SDS011;27926;48.062;7.474;2023-02-28T16:29:01;26.70;;;10.98;;
42260;SDS011;27926;48.062;7.474;2023-02-28T16:31:26;24.17;;;12.48;;
42260;SDS011;27926;48.062;7.474;2023-02-28T16:33:51;22.92;;;12.55;;
42260;SDS011;27926;48.062;7.474;2023-02-28T16:36:17;23.20;;;10.93;;
42260;SDS011;27926;48.062;7.474;2023-02-28T16:38:44;33.63;;;14.80;;
42260;SDS011;27926;48.062;7.474;2023-02-28T16:41:11;21.43;;;10.87;;
42260;SDS011;27926;48.062;7.474;2023-02-28T16:43:41;28.85;;;13.05;;
42260;SDS011;27926;48.062;7.474;2023-02-28T16:46:07;23.97;;;10.80;;
42260;SDS011;27926;48.062;7.474;2023-02-28T16:48:35;20.52;;;10.85;;
42260;SDS011;27926;48.062;7.474;2023-02-28T16:50:59;24.40;;;11.40;;
42260;SDS011;27926;48.062;7.474;2023-02-28T16:53:24;22.93;;;10.93;;
42260;SDS011;27926;48.062;7.474;2023-02-28T16:55:49;28.70;;;11.40;;
42260;SDS011;27926;48.062;7.474;2023-02-28T16:58:15;21.33;;;10.00;;
42260;SDS011;27926;48.062;7.474;2023-02-28T17:00:41;23.85;;;10.55;;
42260;SDS011;27926;48.062;7.474;2023-02-28T17:03:08;26.13;;;12.33;;
42260;SDS011;27926;48.062;7.474;2023-02-28T17:05:42;23.60;;;11.80;;
42260;SDS011;27926;48.062;7.474;2023-02-28T17:08:08;32.37;;;12.73;;
42260;SDS011;27926;48.062;7.474;2023-02-28T17:10:33;38.30;;;15.52;;
42260;SDS011;27926;48.062;7.474;2023-02-28T17:12:57;45.70;;;18.17;;
42260;SDS011;27926;48.062;7.474;2023-02-28T17:15:22;35.80;;;14.53;;
42260;SDS011;27926;48.062;7.474;2023-02-28T17:17:47;29.03;;;12.70;;
42260;SDS011;27926;48.062;7.474;2023-02-28T17:22:47;44.95;;;17.85;;
42260;SDS011;27926;48.062;7.474;2023-02-28T17:25:13;45.63;;;17.98;;
42260;SDS011;27926;48.062;7.474;2023-02-28T17:27:37;40.00;;;19.10;;